Time;durP1;ratioP1;P1;durP2;ratioP2;P2;SDS_P1;SDS_P2;PMS_P1;PMS_P2;Temp;Humidity;BMP_temperature;BMP_pressure;BME280_temperature;BME280_humidity;BME280_pressure;Samples;Min_cycle;Max_cycle;Signal;HPM_P1;HPM_P2
2022/10/12 00:01:40;;;;;;;20.52;6.78;;;21.00;64.10;;;;;;5032700;28;20022;-72
2022/10/12 00:04:06;;;;;;;28.02;6.47;;;21.00;63.90;;;;;;5032443;28;20076;-73
2022/10/12 00:06:32;;;;;;;19.70;6.47;;;21.00;63.80;;;;;;5032214;28;20439;-72
2022/10/12 00:08:57;;;;;;;19.50;6.80;;;21.00;64.00;;;;;;5032344;28;20025;-73
2022/10/12 00:11:26;;;;;;;25.45;6.07;;;21.00;63.90;;;;;;5011459;28;20072;-73
2022/10/12 00:13:53;;;;;;;17.42;5.55;;;21.00;63.80;;;;;;4994727;28;20068;-72
2022/10/12 00:16:23;;;;;;;18.20;6.03;;;21.00;63.80;;;;;;4994705;28;20037;-71
2022/10/12 00:18:58;;;;;;;19.42;5.97;;;21.00;63.90;;;;;;4978776;28;20030;-71
2022/10/12 00:21:25;;;;;;;16.75;6.07;;;21.00;63.70;;;;;;4995239;28;20475;-71
2022/10/12 00:23:51;;;;;;;14.05;5.53;;;21.00;63.80;;;;;;5012236;28;20389;-71
2022/10/12 00:26:21;;;;;;;12.70;5.30;;;21.00;63.80;;;;;;5012019;28;20029;-71
2022/10/12 00:28:48;;;;;;;19.00;5.75;;;21.00;63.70;;;;;;4994973;28;20030;-72
2022/10/12 00:31:16;;;;;;;17.35;6.03;;;21.00;63.70;;;;;;5012193;28;20397;-72
2022/10/12 00:33:43;;;;;;;15.52;5.70;;;21.00;63.60;;;;;;4978169;28;20034;-72
2022/10/12 00:36:23;;;;;;;13.40;5.57;;;21.00;63.70;;;;;;4994394;28;20029;-72
2022/10/12 00:38:51;;;;;;;15.45;5.80;;;21.00;63.80;;;;;;4957164;28;20053;-72
2022/10/12 00:41:19;;;;;;;13.02;5.57;;;21.00;63.60;;;;;;5010619;28;20018;-72
2022/10/12 00:43:46;;;;;;;21.63;6.22;;;21.00;63.60;;;;;;5020789;28;20208;-71
2022/10/12 00:46:20;;;;;;;15.75;6.20;;;21.00;63.60;;;;;;5029648;28;20116;-71
2022/10/12 00:48:53;;;;;;;16.85;5.85;;;20.90;63.50;;;;;;5013662;28;20034;-71
2022/10/12 00:51:21;;;;;;;11.77;5.30;;;20.90;63.40;;;;;;5012059;28;20029;-73
2022/10/12 00:53:53;;;;;;;13.85;5.20;;;21.00;63.50;;;;;;4994107;28;20041;-72
2022/10/12 00:56:22;;;;;;;20.08;5.72;;;20.90;64.00;;;;;;4992931;28;20022;-72
2022/10/12 00:58:49;;;;;;;18.60;5.68;;;20.90;63.50;;;;;;4998294;28;20062;-72
2022/10/12 01:01:16;;;;;;;13.88;5.30;;;20.90;63.70;;;;;;4987205;28;20113;-72
2022/10/12 01:03:42;;;;;;;14.70;5.32;;;20.90;63.60;;;;;;5010580;28;20466;-72
2022/10/12 01:06:08;;;;;;;13.13;4.82;;;20.90;63.50;;;;;;4992770;28;20022;-73
2022/10/12 01:08:36;;;;;;;11.02;4.90;;;20.90;63.50;;;;;;4993540;28;20037;-72
2022/10/12 01:11:03;;;;;;;12.63;5.13;;;20.90;63.30;;;;;;5009769;28;20037;-73
2022/10/12 01:13:29;;;;;;;15.38;5.57;;;20.90;63.20;;;;;;5010979;28;20092;-73
2022/10/12 01:16:12;;;;;;;14.75;5.40;;;20.90;63.40;;;;;;5010017;28;20030;-73
2022/10/12 01:19:04;;;;;;;13.13;5.85;;;20.90;63.20;;;;;;5014088;28;20076;-73
2022/10/12 01:21:36;;;;;;;11.98;4.88;;;20.90;63.20;;;;;;5008880;28;20029;-73
2022/10/12 01:24:16;;;;;;;13.90;5.00;;;20.90;63.20;;;;;;5010424;28;20072;-72
2022/10/12 01:26:52;;;;;;;13.25;5.25;;;20.90;63.30;;;;;;5006965;28;20376;-72
2022/10/12 01:29:34;;;;;;;16.27;5.50;;;20.90;63.20;;;;;;5020003;28;20369;-72
2022/10/12 01:32:17;;;;;;;15.15;5.32;;;20.90;63.40;;;;;;5022685;28;20084;-72
2022/10/12 01:34:56;;;;;;;14.55;5.40;;;20.90;63.20;;;;;;5010171;28;20030;-72
2022/10/12 01:37:46;;;;;;;13.38;4.85;;;20.90;63.30;;;;;;5006348;28;20022;-72
2022/10/12 01:40:18;;;;;;;15.20;5.18;;;21.00;63.40;;;;;;5010519;28;20026;-72
2022/10/12 01:42:46;;;;;;;11.68;4.53;;;20.90;63.30;;;;;;5009946;28;20022;-72
2022/10/12 01:45:18;;;;;;;13.88;5.05;;;20.90;63.30;;;;;;5003961;28;20022;-72
2022/10/12 01:47:47;;;;;;;13.60;5.28;;;20.90;63.30;;;;;;5011656;28;20022;-72
2022/10/12 01:50:15;;;;;;;12.13;5.13;;;20.90;63.30;;;;;;5010499;28;20033;-72
2022/10/12 01:52:56;;;;;;;14.32;5.05;;;20.90;63.30;;;;;;5010061;28;20034;-72
2022/10/12 01:55:35;;;;;;;15.63;5.03;;;20.90;63.20;;;;;;5002494;28;20033;-72
2022/10/12 01:58:30;;;;;;;14.23;5.05;;;20.90;63.20;;;;;;4973597;28;20319;-72
2022/10/12 02:01:11;;;;;;;10.90;3.92;;;20.90;63.20;;;;;;5010854;28;20036;-73
2022/10/12 02:03:50;;;;;;;9.98;4.32;;;20.90;63.10;;;;;;4994320;28;20482;-73
2022/10/12 02:06:19;;;;;;;11.15;4.70;;;20.90;63.20;;;;;;4996487;28;20482;-73
2022/10/12 02:08:57;;;;;;;9.93;4.50;;;20.90;63.30;;;;;;5013971;28;20452;-72
2022/10/12 02:11:26;;;;;;;11.80;4.88;;;20.90;63.10;;;;;;5008438;28;20030;-72
2022/10/12 02:13:58;;;;;;;11.05;4.22;;;20.90;63.20;;;;;;4995662;28;20034;-72
2022/10/12 02:16:44;;;;;;;12.85;5.05;;;20.90;63.10;;;;;;5001775;28;20266;-72
2022/10/12 02:19:16;;;;;;;14.82;4.95;;;20.90;63.10;;;;;;5020692;28;20094;-72
2022/10/12 02:21:44;;;;;;;9.82;4.28;;;20.90;63.10;;;;;;5016554;28;20022;-72
2022/10/12 02:24:12;;;;;;;11.50;4.78;;;20.90;63.10;;;;;;4994898;28;20028;-72
2022/10/12 02:26:43;;;;;;;9.20;4.47;;;20.90;63.20;;;;;;5013420;28;20382;-73
2022/10/12 02:29:16;;;;;;;12.30;4.80;;;20.90;63.10;;;;;;5014689;28;20022;-72
2022/10/12 02:31:48;;;;;;;11.77;4.68;;;20.90;63.20;;;;;;5014689;28;20029;-73
2022/10/12 02:34:22;;;;;;;12.82;5.00;;;20.90;63.20;;;;;;5027826;28;20121;-72
2022/10/12 02:36:55;;;;;;;7.78;4.30;;;20.90;63.10;;;;;;5013265;28;20105;-72
2022/10/12 02:39:29;;;;;;;10.40;4.63;;;20.90;63.20;;;;;;5013186;28;20022;-72
2022/10/12 02:42:01;;;;;;;15.13;4.88;;;20.90;63.10;;;;;;5012191;28;20025;-72
2022/10/12 02:44:31;;;;;;;11.93;4.97;;;20.90;63.10;;;;;;5013359;28;20018;-72
2022/10/12 02:46:59;;;;;;;12.10;4.53;;;20.90;63.10;;;;;;5013583;28;20037;-72
2022/10/12 02:49:30;;;;;;;12.93;5.18;;;20.90;63.00;;;;;;4995742;28;20061;-71
2022/10/12 02:51:56;;;;;;;10.43;4.00;;;20.90;63.00;;;;;;4996267;28;20036;-71
2022/10/12 02:54:22;;;;;;;10.68;4.50;;;20.90;63.70;;;;;;4995414;28;20030;-71
2022/10/12 02:56:48;;;;;;;10.05;4.30;;;20.90;63.00;;;;;;5012308;28;20104;-72
2022/10/12 02:59:16;;;;;;;9.40;4.35;;;20.90;63.00;;;;;;5012124;28;20022;-72
2022/10/12 03:01:42;;;;;;;12.95;4.78;;;20.90;63.00;;;;;;5013103;28;20056;-72
2022/10/12 03:04:08;;;;;;;8.63;4.20;;;20.80;62.90;;;;;;5012540;28;20496;-72
2022/10/12 03:06:34;;;;;;;9.13;4.63;;;20.90;63.00;;;;;;5012424;28;20022;-72
2022/10/12 03:09:00;;;;;;;10.38;4.43;;;20.80;62.90;;;;;;4994680;28;20026;-72
2022/10/12 03:11:27;;;;;;;8.95;4.50;;;20.80;63.00;;;;;;4992768;28;20503;-73
2022/10/12 03:13:54;;;;;;;9.15;4.07;;;20.80;62.90;;;;;;4996019;28;20402;-72
2022/10/12 03:16:20;;;;;;;9.18;4.43;;;20.80;62.90;;;;;;5011498;28;20354;-72
2022/10/12 03:18:46;;;;;;;13.88;4.47;;;20.80;63.00;;;;;;5013374;28;20026;-72
2022/10/12 03:21:11;;;;;;;9.57;4.38;;;20.80;63.00;;;;;;5012568;28;20045;-72
2022/10/12 03:23:37;;;;;;;13.00;4.75;;;20.80;63.00;;;;;;5011537;28;20496;-72
2022/10/12 03:26:04;;;;;;;10.52;4.20;;;20.80;63.00;;;;;;5011142;28;20046;-72
2022/10/12 03:28:30;;;;;;;10.98;4.75;;;20.80;62.90;;;;;;5012428;28;20515;-72
2022/10/12 03:30:56;;;;;;;9.23;4.03;;;20.80;63.50;;;;;;5012427;28;20030;-71
2022/10/12 03:33:22;;;;;;;9.63;4.13;;;20.80;62.90;;;;;;5013178;28;20022;-72
2022/10/12 03:35:48;;;;;;;11.63;4.78;;;20.80;63.00;;;;;;5009699;28;20034;-72
2022/10/12 03:38:15;;;;;;;10.80;4.80;;;20.80;63.00;;;;;;5013363;28;20026;-72
2022/10/12 03:40:42;;;;;;;9.27;4.32;;;20.80;62.90;;;;;;4993649;28;20018;-71
2022/10/12 03:43:08;;;;;;;11.43;4.60;;;20.80;62.90;;;;;;5012997;28;20517;-71
2022/10/12 03:45:34;;;;;;;12.43;4.60;;;20.80;62.90;;;;;;4993433;28;20026;-71
2022/10/12 03:48:00;;;;;;;11.98;4.57;;;20.80;62.80;;;;;;5011171;28;20030;-72
2022/10/12 03:50:26;;;;;;;10.20;4.43;;;20.80;62.80;;;;;;4988881;28;20391;-72
2022/10/12 03:52:52;;;;;;;10.75;4.43;;;20.80;62.90;;;;;;5011793;28;20038;-72
2022/10/12 03:55:18;;;;;;;9.57;4.28;;;20.80;62.80;;;;;;5010551;28;20033;-72
2022/10/12 03:57:44;;;;;;;10.60;4.55;;;20.80;62.80;;;;;;4995395;28;20030;-72
2022/10/12 04:00:12;;;;;;;12.05;4.75;;;20.80;62.80;;;;;;4993404;28;20060;-71
2022/10/12 04:02:38;;;;;;;11.82;4.15;;;20.80;62.90;;;;;;5006575;28;20447;-72
2022/10/12 04:05:05;;;;;;;9.50;4.50;;;20.80;62.80;;;;;;5011744;28;20082;-72
2022/10/12 04:07:31;;;;;;;8.68;4.28;;;20.80;62.90;;;;;;4992992;28;20034;-72
2022/10/12 04:09:56;;;;;;;8.85;4.45;;;20.80;63.20;;;;;;5010785;28;20026;-72
2022/10/12 04:12:22;;;;;;;20.42;4.25;;;20.80;62.90;;;;;;5011994;28;20493;-72
2022/10/12 04:14:48;;;;;;;16.17;4.47;;;20.80;63.10;;;;;;5011726;28;20075;-73
2022/10/12 04:17:15;;;;;;;12.90;4.93;;;20.80;63.00;;;;;;5017821;28;20101;-72
2022/10/12 04:19:41;;;;;;;23.45;4.78;;;20.80;62.90;;;;;;5010818;28;20020;-72
2022/10/12 04:22:07;;;;;;;27.75;5.55;;;20.80;63.00;;;;;;4992225;28;20034;-72
2022/10/12 04:24:33;;;;;;;18.92;5.57;;;20.80;63.00;;;;;;5011592;28;20024;-72
2022/10/12 04:26:59;;;;;;;20.63;5.38;;;20.80;63.20;;;;;;5010585;28;20021;-72
2022/10/12 04:29:24;;;;;;;11.57;4.28;;;20.80;63.10;;;;;;5011096;28;20030;-73
2022/10/12 04:31:50;;;;;;;15.30;4.97;;;20.80;63.00;;;;;;5010404;28;20033;-72
2022/10/12 04:34:16;;;;;;;22.30;5.03;;;20.70;63.00;;;;;;5010885;28;20036;-72
2022/10/12 04:36:42;;;;;;;17.17;5.30;;;20.70;63.00;;;;;;5011197;28;20030;-72
2022/10/12 04:39:07;;;;;;;21.75;5.35;;;20.80;63.20;;;;;;4993332;28;20030;-73
2022/10/12 04:41:33;;;;;;;15.35;5.13;;;20.70;63.10;;;;;;5010538;28;20038;-73
2022/10/12 04:43:59;;;;;;;15.90;5.93;;;20.70;63.10;;;;;;5011626;28;20018;-72
2022/10/12 04:46:25;;;;;;;18.08;5.25;;;20.70;63.00;;;;;;5009230;28;20025;-73
2022/10/12 04:48:51;;;;;;;13.63;4.07;;;20.70;63.10;;;;;;4993336;28;20430;-73
2022/10/12 04:51:16;;;;;;;16.02;4.82;;;20.70;62.90;;;;;;4993484;28;20064;-73
2022/10/12 04:53:42;;;;;;;21.27;4.43;;;20.70;62.90;;;;;;5010506;28;20124;-73
2022/10/12 04:56:08;;;;;;;15.55;5.15;;;20.70;62.90;;;;;;5010864;28;20486;-73
2022/10/12 04:58:34;;;;;;;13.60;4.78;;;20.70;62.80;;;;;;5010989;28;20022;-73
2022/10/12 05:01:00;;;;;;;13.32;3.83;;;20.70;62.70;;;;;;5010859;28;20032;-73
2022/10/12 05:03:26;;;;;;;13.80;5.18;;;20.70;62.70;;;;;;4990605;28;20025;-73
2022/10/12 05:05:52;;;;;;;14.30;4.38;;;20.70;62.80;;;;;;5001814;28;20025;-73
2022/10/12 05:08:17;;;;;;;14.40;4.38;;;20.70;62.80;;;;;;5010156;28;20462;-72
2022/10/12 05:10:45;;;;;;;11.18;4.22;;;20.70;62.80;;;;;;5009999;28;20033;-73
2022/10/12 05:13:12;;;;;;;12.75;4.80;;;20.70;62.80;;;;;;4991949;28;20072;-72
2022/10/12 05:15:39;;;;;;;9.23;4.38;;;20.70;62.80;;;;;;5010295;28;20030;-73
2022/10/12 05:18:09;;;;;;;11.50;4.30;;;20.70;62.80;;;;;;5010584;28;20080;-72
2022/10/12 05:20:35;;;;;;;10.73;4.50;;;20.70;62.80;;;;;;5010485;28;20025;-73
2022/10/12 05:23:01;;;;;;;13.73;4.43;;;20.70;62.90;;;;;;5010463;28;20075;-73
2022/10/12 05:25:29;;;;;;;10.88;4.10;;;20.70;62.90;;;;;;5009582;28;20022;-72
2022/10/12 05:27:56;;;;;;;13.88;5.18;;;20.70;63.00;;;;;;4991902;28;20478;-73
2022/10/12 05:30:22;;;;;;;15.43;4.22;;;20.70;62.90;;;;;;5009494;28;20026;-73
2022/10/12 05:32:48;;;;;;;14.10;4.82;;;20.70;62.90;;;;;;4991724;28;20192;-73
2022/10/12 05:35:17;;;;;;;15.50;4.55;;;20.70;63.10;;;;;;4981017;28;20032;-72
2022/10/12 05:37:43;;;;;;;11.75;4.28;;;20.70;63.00;;;;;;5012262;28;20030;-73
2022/10/12 05:40:09;;;;;;;10.98;4.28;;;20.70;63.20;;;;;;5014203;28;20021;-72
2022/10/12 05:42:35;;;;;;;10.48;4.50;;;20.70;63.50;;;;;;4994290;28;20022;-73
2022/10/12 05:45:01;;;;;;;10.70;4.72;;;20.70;63.10;;;;;;5013829;28;20022;-73
2022/10/12 05:47:27;;;;;;;17.42;4.57;;;20.70;63.10;;;;;;5019148;28;20502;-72
2022/10/12 05:49:53;;;;;;;9.45;4.40;;;20.70;63.00;;;;;;5015160;28;20112;-72
2022/10/12 05:52:19;;;;;;;12.52;4.53;;;20.70;63.00;;;;;;5013468;28;20112;-72
2022/10/12 05:54:44;;;;;;;12.00;4.40;;;20.70;62.90;;;;;;5040772;22;20052;-68
2022/10/12 05:57:11;;;;;;;26.17;4.90;;;20.70;63.00;;;;;;5033680;28;20029;-71
2022/10/12 05:59:37;;;;;;;15.23;4.90;;;20.70;63.00;;;;;;5017085;28;20398;-69
2022/10/12 06:02:03;;;;;;;14.65;4.68;;;20.70;62.90;;;;;;5034980;28;20020;-69
2022/10/12 06:04:29;;;;;;;10.00;4.15;;;20.70;62.90;;;;;;5017040;28;20484;-69
2022/10/12 06:06:55;;;;;;;9.70;4.60;;;20.70;62.80;;;;;;5034532;28;20044;-69
2022/10/12 06:09:20;;;;;;;12.80;4.82;;;20.70;62.90;;;;;;5000509;28;20393;-70
2022/10/12 06:11:46;;;;;;;10.68;4.43;;;20.70;62.90;;;;;;4979729;28;20031;-70
2022/10/12 06:14:13;;;;;;;11.35;4.20;;;20.70;63.40;;;;;;5000985;28;20024;-70
2022/10/12 06:16:39;;;;;;;10.95;4.57;;;20.70;62.80;;;;;;4997285;28;20110;-69
2022/10/12 06:19:05;;;;;;;10.55;4.65;;;20.70;62.80;;;;;;4997277;28;20057;-69
2022/10/12 06:21:30;;;;;;;11.45;4.60;;;20.70;62.90;;;;;;5014886;28;20032;-70
2022/10/12 06:23:56;;;;;;;15.60;4.45;;;20.70;62.90;;;;;;5014938;28;20097;-70
2022/10/12 06:26:23;;;;;;;14.70;4.40;;;20.70;62.80;;;;;;5014500;28;20057;-70
2022/10/12 06:28:49;;;;;;;11.73;4.32;;;20.70;62.90;;;;;;4996861;28;20096;-70
2022/10/12 06:31:15;;;;;;;11.05;4.47;;;20.70;62.90;;;;;;5014650;28;20034;-70
2022/10/12 06:33:40;;;;;;;14.02;5.15;;;20.70;62.90;;;;;;4996846;28;20029;-70
2022/10/12 06:36:06;;;;;;;16.20;4.85;;;20.70;62.90;;;;;;5013975;28;20034;-69
2022/10/12 06:38:32;;;;;;;9.88;4.40;;;20.70;62.80;;;;;;4997141;28;20036;-70
2022/10/12 06:40:58;;;;;;;10.48;4.28;;;20.70;62.80;;;;;;5014934;28;20021;-69
2022/10/12 06:43:23;;;;;;;13.10;4.88;;;20.70;62.80;;;;;;5013747;28;20030;-69
2022/10/12 06:45:49;;;;;;;10.95;4.47;;;20.70;62.80;;;;;;4980175;28;20494;-69
2022/10/12 06:48:15;;;;;;;11.07;4.80;;;20.70;62.80;;;;;;5014556;28;20034;-70
2022/10/12 06:50:41;;;;;;;10.23;4.40;;;20.70;62.80;;;;;;5018033;28;20549;-70
2022/10/12 06:53:07;;;;;;;10.07;4.43;;;20.70;62.80;;;;;;5034157;28;20029;-69
2022/10/12 06:55:32;;;;;;;13.95;5.22;;;20.70;62.80;;;;;;5015719;28;20170;-69
2022/10/12 06:57:58;;;;;;;13.38;4.97;;;20.70;62.80;;;;;;5005124;28;20030;-69
2022/10/12 07:00:24;;;;;;;12.57;4.60;;;20.70;62.80;;;;;;5010542;28;20112;-69
2022/10/12 07:02:51;;;;;;;12.13;4.55;;;20.70;62.80;;;;;;5003115;28;20026;-69
2022/10/12 07:05:17;;;;;;;18.50;5.30;;;20.70;62.80;;;;;;5013212;28;20030;-69
2022/10/12 07:07:43;;;;;;;14.02;4.90;;;20.70;62.80;;;;;;5006727;28;20498;-69
2022/10/12 07:10:09;;;;;;;12.80;4.65;;;20.70;62.80;;;;;;5005044;28;20112;-68
2022/10/12 07:12:36;;;;;;;13.07;5.25;;;20.70;62.90;;;;;;4994520;28;20111;-69
2022/10/12 07:15:03;;;;;;;13.02;4.90;;;20.70;62.80;;;;;;5003179;28;20072;-68
2022/10/12 07:17:29;;;;;;;14.07;5.40;;;20.70;62.70;;;;;;5000556;28;20034;-69
2022/10/12 07:19:55;;;;;;;13.68;5.43;;;20.70;62.70;;;;;;5010497;28;20513;-68
2022/10/12 07:22:21;;;;;;;14.23;5.05;;;20.70;62.70;;;;;;5001347;28;20037;-69
2022/10/12 07:24:46;;;;;;;16.08;4.82;;;20.70;62.60;;;;;;4976475;28;20095;-70
2022/10/12 07:27:12;;;;;;;11.60;5.32;;;20.70;62.60;;;;;;5004416;28;20022;-70
2022/10/12 07:29:38;;;;;;;10.82;5.00;;;20.70;62.60;;;;;;4995203;28;20052;-70
2022/10/12 07:32:05;;;;;;;12.70;4.53;;;20.70;62.60;;;;;;4995012;28;20037;-70
2022/10/12 07:34:31;;;;;;;11.73;4.45;;;20.70;62.60;;;;;;5012219;28;20125;-70
2022/10/12 07:36:57;;;;;;;16.52;5.30;;;20.70;62.60;;;;;;5004517;28;20113;-75
2022/10/12 07:39:23;;;;;;;17.45;5.30;;;20.70;62.60;;;;;;5008646;28;20060;-71
2022/10/12 07:41:50;;;;;;;16.25;6.00;;;20.50;57.80;;;;;;5019761;28;20022;-70
2022/10/12 07:44:16;;;;;;;21.88;5.82;;;20.50;55.20;;;;;;5031691;28;20108;-69
2022/10/12 07:46:42;;;;;;;19.67;5.50;;;20.50;56.40;;;;;;5020835;28;20033;-69
2022/10/12 07:49:10;;;;;;;18.98;5.72;;;20.50;57.10;;;;;;5007441;28;20541;-69
2022/10/12 07:51:36;;;;;;;19.70;6.10;;;20.60;60.50;;;;;;5016768;28;20101;-69
2022/10/12 07:54:02;;;;;;;19.30;5.90;;;20.70;61.40;;;;;;4984676;28;20048;-69
2022/10/12 07:56:28;;;;;;;30.67;5.70;;;20.80;62.00;;;;;;5009010;28;20033;-69
2022/10/12 07:58:56;;;;;;;20.17;6.50;;;20.90;62.90;;;;;;4986958;28;20065;-69
2022/10/12 08:01:24;;;;;;;26.95;6.75;;;21.00;64.70;;;;;;4995430;28;20018;-69
2022/10/12 08:03:51;;;;;;;20.13;6.28;;;21.00;63.90;;;;;;5009099;28;20082;-69
2022/10/12 08:06:20;;;;;;;25.95;5.75;;;21.00;64.20;;;;;;4997716;28;20021;-70
2022/10/12 08:08:47;;;;;;;26.00;7.65;;;21.10;62.90;;;;;;5010551;28;20547;-70
2022/10/12 08:11:13;;;;;;;19.02;5.25;;;21.10;63.30;;;;;;5013450;28;20026;-70
2022/10/12 08:13:39;;;;;;;26.98;6.57;;;21.10;63.30;;;;;;5011804;28;20029;-72
2022/10/12 08:16:10;;;;;;;15.70;5.72;;;21.20;63.40;;;;;;5011028;28;20061;-69
2022/10/12 08:18:36;;;;;;;19.83;5.45;;;21.10;63.40;;;;;;5011259;28;20449;-69
2022/10/12 08:21:06;;;;;;;18.50;5.20;;;21.10;63.50;;;;;;4978343;28;20053;-71
2022/10/12 08:23:33;;;;;;;22.83;5.30;;;21.10;63.40;;;;;;4992717;28;20371;-74
2022/10/12 08:25:59;;;;;;;24.42;5.40;;;21.10;62.90;;;;;;4987705;28;20022;-74
2022/10/12 08:28:25;;;;;;;24.75;5.47;;;21.10;62.10;;;;;;5012225;28;20034;-74
2022/10/12 08:30:51;;;;;;;25.83;4.78;;;21.00;61.00;;;;;;5001983;28;20022;-70
2022/10/12 08:33:18;;;;;;;20.98;5.65;;;21.00;59.00;;;;;;4992471;28;20041;-68
2022/10/12 08:35:45;;;;;;;16.55;6.15;;;20.90;60.10;;;;;;5006334;28;20156;-74
2022/10/12 08:38:11;;;;;;;29.15;14.07;;;20.90;59.50;;;;;;5013748;28;20049;-69
2022/10/12 08:40:55;;;;;;;38.22;20.77;;;20.80;56.90;;;;;;5013984;28;20013;-70
2022/10/12 08:43:53;;;;;;;33.67;16.88;;;20.90;58.00;;;;;;5017598;28;20104;-70
2022/10/12 08:46:21;;;;;;;33.40;17.85;;;20.90;57.10;;;;;;5015639;28;20030;-70
2022/10/12 08:49:00;;;;;;;37.22;17.30;;;20.90;56.60;;;;;;5030760;28;20029;-70
2022/10/12 08:51:29;;;;;;;28.85;17.10;;;21.00;58.20;;;;;;5030960;28;20042;-70
2022/10/12 08:54:13;;;;;;;29.67;16.95;;;21.00;58.20;;;;;;5026777;28;20045;-70
2022/10/12 08:56:40;;;;;;;32.80;17.80;;;21.00;58.60;;;;;;4995310;28;20049;-70
2022/10/12 08:59:12;;;;;;;38.20;17.38;;;21.00;59.20;;;;;;5018336;28;20051;-70
2022/10/12 09:02:20;;;;;;;32.72;15.80;;;20.90;59.90;;;;;;5027325;28;20067;-70
2022/10/12 09:05:00;;;;;;;37.65;17.00;;;21.00;59.90;;;;;;4963143;28;20122;-70
2022/10/12 09:07:30;;;;;;;36.65;15.73;;;21.00;59.50;;;;;;5011139;28;20034;-70
2022/10/12 09:10:33;;;;;;;32.30;14.95;;;21.00;59.70;;;;;;5010097;28;20116;-70
2022/10/12 09:13:27;;;;;;;26.95;14.90;;;21.00;59.50;;;;;;5011166;28;20030;-70
2022/10/12 09:16:02;;;;;;;30.00;15.35;;;21.10;59.40;;;;;;5011421;28;20025;-70
2022/10/12 09:18:41;;;;;;;28.80;14.50;;;21.10;59.60;;;;;;5009709;28;20116;-70
2022/10/12 09:21:16;;;;;;;29.70;15.35;;;21.10;60.00;;;;;;5017557;28;20029;-68
2022/10/12 09:23:43;;;;;;;25.80;13.98;;;21.00;59.90;;;;;;5008834;28;20075;-69
2022/10/12 09:26:12;;;;;;;24.50;14.30;;;21.00;60.00;;;;;;4986661;28;20049;-69
2022/10/12 09:29:32;;;;;;;27.40;14.60;;;21.00;59.90;;;;;;5012097;28;20416;-70
2022/10/12 09:32:26;;;;;;;29.50;14.77;;;21.00;60.30;;;;;;4976747;28;20501;-69
2022/10/12 09:34:53;;;;;;;25.45;13.75;;;21.00;60.30;;;;;;5009352;28;20133;-70
2022/10/12 09:37:26;;;;;;;33.45;14.55;;;21.00;60.50;;;;;;4994987;28;20542;-70
2022/10/12 09:39:53;;;;;;;30.83;15.05;;;21.00;60.60;;;;;;5012350;28;20053;-70
2022/10/12 09:42:19;;;;;;;33.63;13.45;;;21.00;60.60;;;;;;4993028;28;20022;-70
2022/10/12 09:44:48;;;;;;;22.85;13.30;;;21.00;60.70;;;;;;5015069;28;20486;-70
2022/10/12 09:47:20;;;;;;;24.27;13.65;;;21.10;60.60;;;;;;5008860;28;20168;-70
2022/10/12 09:49:50;;;;;;;27.77;13.70;;;21.00;60.80;;;;;;4991903;28;20034;-70
2022/10/12 09:52:23;;;;;;;24.92;12.93;;;21.00;60.70;;;;;;5005648;28;20129;-70
2022/10/12 09:54:56;;;;;;;29.48;13.85;;;21.00;60.70;;;;;;4992316;28;20030;-69
2022/10/12 09:57:27;;;;;;;22.85;13.32;;;21.00;60.80;;;;;;4991396;28;20444;-69
2022/10/12 09:59:53;;;;;;;26.17;13.57;;;21.00;60.90;;;;;;4992007;28;20121;-69
2022/10/12 10:02:25;;;;;;;23.88;12.48;;;21.10;60.90;;;;;;5007007;28;20033;-69
2022/10/12 10:04:52;;;;;;;24.02;13.68;;;21.10;60.80;;;;;;4991903;28;20030;-69
2022/10/12 10:07:32;;;;;;;22.45;12.90;;;21.10;60.90;;;;;;4975717;28;20034;-70
2022/10/12 10:10:06;;;;;;;23.05;13.23;;;21.10;60.90;;;;;;5009222;28;20029;-68
2022/10/12 10:12:40;;;;;;;22.13;12.68;;;21.10;61.00;;;;;;5010730;28;20026;-69
2022/10/12 10:15:23;;;;;;;22.13;11.77;;;21.10;61.10;;;;;;5009074;28;20042;-69
2022/10/12 10:17:53;;;;;;;22.30;11.90;;;21.10;61.10;;;;;;4993085;28;20057;-69
2022/10/12 10:20:48;;;;;;;20.45;11.38;;;21.10;61.90;;;;;;5013893;28;20544;-70
2022/10/12 10:23:34;;;;;;;31.30;12.43;;;21.10;60.90;;;;;;4997345;28;20397;-69
2022/10/12 10:26:14;;;;;;;22.52;11.52;;;21.10;61.10;;;;;;5014313;28;20117;-70
2022/10/12 10:28:43;;;;;;;23.23;11.73;;;21.00;61.10;;;;;;5014901;28;20054;-70
2022/10/12 10:31:11;;;;;;;24.35;12.90;;;21.00;61.10;;;;;;5014790;28;20026;-70
2022/10/12 10:33:38;;;;;;;25.45;11.70;;;21.00;61.10;;;;;;5014631;28;20058;-70
2022/10/12 10:36:04;;;;;;;23.55;12.18;;;21.00;61.20;;;;;;5014032;28;20034;-70
2022/10/12 10:38:43;;;;;;;19.25;11.52;;;21.00;61.10;;;;;;5014438;28;20509;-70
2022/10/12 10:41:16;;;;;;;17.95;11.05;;;21.00;61.10;;;;;;5014343;28;20026;-70
2022/10/12 10:43:45;;;;;;;26.30;12.23;;;21.00;61.70;;;;;;5014415;28;20137;-70
2022/10/12 10:46:12;;;;;;;22.37;12.03;;;21.00;61.10;;;;;;5014385;28;20057;-70
2022/10/12 10:49:00;;;;;;;19.38;11.68;;;21.00;61.00;;;;;;5014308;28;20273;-70
2022/10/12 10:51:59;;;;;;;19.73;11.10;;;21.00;61.00;;;;;;5014294;28;20061;-70
2022/10/12 10:54:30;;;;;;;18.35;11.02;;;21.00;61.00;;;;;;4960578;28;20136;-70
2022/10/12 10:57:05;;;;;;;19.55;11.80;;;21.00;61.60;;;;;;4996181;28;20105;-70
2022/10/12 10:59:51;;;;;;;16.38;10.18;;;21.00;61.00;;;;;;4980364;28;20033;-70
2022/10/12 11:02:40;;;;;;;20.83;11.98;;;21.00;61.10;;;;;;5014039;28;20026;-70
2022/10/12 11:05:12;;;;;;;20.52;11.25;;;21.00;61.10;;;;;;4997309;28;20026;-70
2022/10/12 11:07:51;;;;;;;18.35;10.98;;;21.00;61.10;;;;;;5013885;28;20030;-69
2022/10/12 11:10:47;;;;;;;21.40;11.82;;;21.00;61.30;;;;;;4996266;28;20033;-70
2022/10/12 11:13:37;;;;;;;19.27;11.07;;;21.00;61.40;;;;;;5013795;28;20034;-70
2022/10/12 11:16:24;;;;;;;19.00;10.73;;;21.00;61.50;;;;;;5013284;28;20041;-70
2022/10/12 11:18:57;;;;;;;17.15;10.55;;;21.00;61.40;;;;;;5013954;28;20417;-70
2022/10/12 11:21:31;;;;;;;18.45;11.35;;;21.00;61.30;;;;;;5013798;28;20030;-70
2022/10/12 11:24:24;;;;;;;20.30;10.85;;;21.00;61.40;;;;;;4995590;28;20457;-70
2022/10/12 11:26:56;;;;;;;23.00;10.82;;;21.00;61.50;;;;;;4999684;28;20062;-70
2022/10/12 11:29:22;;;;;;;21.25;10.05;;;21.00;61.70;;;;;;5002027;28;20055;-70
2022/10/12 11:31:56;;;;;;;20.08;10.60;;;21.00;62.40;;;;;;5011752;28;20437;-69
2022/10/12 11:34:24;;;;;;;19.65;10.55;;;21.00;62.10;;;;;;5008099;28;20433;-70
2022/10/12 11:36:53;;;;;;;19.20;10.25;;;21.10;62.40;;;;;;4993201;28;20474;-70
2022/10/12 11:39:33;;;;;;;18.98;10.73;;;21.10;63.50;;;;;;4979259;28;20033;-69
2022/10/12 11:42:01;;;;;;;22.42;10.55;;;21.20;63.90;;;;;;5008050;28;20588;-70
2022/10/12 11:44:44;;;;;;;23.27;10.45;;;21.30;63.90;;;;;;4992133;28;20030;-70
2022/10/12 11:47:21;;;;;;;24.45;11.40;;;21.30;64.30;;;;;;5010050;28;20412;-72
2022/10/12 11:49:58;;;;;;;17.75;10.23;;;21.30;68.10;;;;;;4992508;28;20034;-72
2022/10/12 11:52:35;;;;;;;20.50;9.73;;;21.30;65.10;;;;;;5008745;28;20030;-72
2022/10/12 11:55:19;;;;;;;21.52;8.35;;;21.20;65.30;;;;;;5001518;23;20127;-73
2022/10/12 11:57:46;;;;;;;22.40;6.88;;;21.10;63.50;;;;;;4996680;28;20452;-73
2022/10/12 12:00:22;;;;;;;13.55;5.38;;;21.00;61.30;;;;;;4991431;28;20101;-72
2022/10/12 12:02:59;;;;;;;16.42;5.28;;;20.90;58.30;;;;;;4989295;28;20049;-71
2022/10/12 12:05:30;;;;;;;14.10;5.13;;;21.00;59.20;;;;;;5010635;28;20037;-70
2022/10/12 12:07:56;;;;;;;14.20;4.70;;;21.00;57.90;;;;;;4978584;28;20034;-71
2022/10/12 12:10:30;;;;;;;15.25;4.20;;;21.00;58.00;;;;;;5008741;28;20034;-70
2022/10/12 12:13:16;;;;;;;15.70;4.90;;;21.00;57.50;;;;;;5008798;28;20026;-70
2022/10/12 12:16:11;;;;;;;17.40;4.68;;;21.00;57.80;;;;;;5006667;28;20417;-70
2022/10/12 12:19:16;;;;;;;17.02;4.85;;;21.00;58.00;;;;;;5008674;28;20130;-68
2022/10/12 12:22:16;;;;;;;13.68;5.03;;;21.00;58.20;;;;;;4976070;28;20041;-71
2022/10/12 12:25:37;;;;;;;14.38;4.60;;;21.00;58.70;;;;;;5010185;28;20049;-71
2022/10/12 12:28:20;;;;;;;11.25;4.45;;;21.00;59.10;;;;;;5002570;28;20315;-70
2022/10/12 12:31:00;;;;;;;16.17;4.93;;;21.00;59.40;;;;;;5010432;28;20105;-72
2022/10/12 12:33:30;;;;;;;15.52;4.90;;;21.00;59.70;;;;;;5012365;28;20022;-72
2022/10/12 12:36:03;;;;;;;12.27;4.38;;;21.10;59.70;;;;;;5011746;28;20063;-72
2022/10/12 12:38:36;;;;;;;15.38;4.45;;;21.00;59.90;;;;;;5009379;28;20064;-71
2022/10/12 12:41:10;;;;;;;12.27;4.55;;;21.10;60.00;;;;;;4990428;28;20061;-70
2022/10/12 12:43:50;;;;;;;10.40;4.60;;;21.10;60.00;;;;;;5009845;28;20041;-71
2022/10/12 12:46:16;;;;;;;17.92;4.80;;;21.10;60.00;;;;;;4994907;28;20026;-71
2022/10/12 12:48:42;;;;;;;13.45;4.88;;;21.00;59.80;;;;;;4999381;28;20037;-71
2022/10/12 12:51:34;;;;;;;10.63;4.50;;;21.00;59.90;;;;;;5011651;28;20493;-70
2022/10/12 12:54:15;;;;;;;12.13;4.50;;;21.00;59.90;;;;;;4977306;28;20056;-70
2022/10/12 12:56:44;;;;;;;11.80;4.97;;;21.00;60.20;;;;;;4993721;28;20030;-71